sensor_id;sensor_type;location;lat;lon;timestamp;pressure;altitude;pressure_sealevel;temperature;humidity
50364;BME280;36272;59.400;17.982;2023-05-03T00:02:39;101620.75;;;7.35;60.93
50364;BME280;36272;59.400;17.982;2023-05-03T00:07:45;101610.38;;;7.25;61.16
50364;BME280;36272;59.400;17.982;2023-05-03T00:12:47;101629.41;;;7.13;61.63
50364;BME280;36272;59.400;17.982;2023-05-03T00:17:48;101625.66;;;6.99;61.85
50364;BME280;36272;59.400;17.982;2023-05-03T00:22:50;101631.03;;;6.91;62.19
50364;BME280;36272;59.400;17.982;2023-05-03T00:27:52;101634.72;;;6.82;62.20
50364;BME280;36272;59.400;17.982;2023-05-03T00:32:53;101640.09;;;6.74;62.44
50364;BME280;36272;59.400;17.982;2023-05-03T00:37:55;101641.63;;;6.68;62.71
50364;BME280;36272;59.400;17.982;2023-05-03T00:42:57;101642.97;;;6.64;62.98
50364;BME280;36272;59.400;17.982;2023-05-03T00:47:59;101641.66;;;6.60;63.00
50364;BME280;36272;59.400;17.982;2023-05-03T00:53:01;101651.63;;;6.58;63.22
50364;BME280;36272;59.400;17.982;2023-05-03T00:58:03;101662.59;;;6.54;63.43
50364;BME280;36272;59.400;17.982;2023-05-03T01:03:05;101663.78;;;6.52;63.77
50364;BME280;36272;59.400;17.982;2023-05-03T01:08:30;101651.84;;;6.48;64.33
50364;BME280;36272;59.400;17.982;2023-05-03T01:19:05;101662.69;;;6.38;64.17
50364;BME280;36272;59.400;17.982;2023-05-03T01:24:13;101657.06;;;6.33;64.25
50364;BME280;36272;59.400;17.982;2023-05-03T01:29:18;101681.31;;;6.30;64.27
50364;BME280;36272;59.400;17.982;2023-05-03T01:34:28;101667.03;;;6.22;64.78
50364;BME280;36272;59.400;17.982;2023-05-03T01:40:02;101667.03;;;6.22;65.35
50364;BME280;36272;59.400;17.982;2023-05-03T01:45:08;101683.97;;;6.21;64.75
50364;BME280;36272;59.400;17.982;2023-05-03T01:50:10;101696.78;;;6.18;64.80
50364;BME280;36272;59.400;17.982;2023-05-03T01:55:12;101703.09;;;6.17;64.90
50364;BME280;36272;59.400;17.982;2023-05-03T02:00:14;101695.28;;;6.15;65.39
50364;BME280;36272;59.400;17.982;2023-05-03T02:05:16;101693.94;;;6.11;65.34
50364;BME280;36272;59.400;17.982;2023-05-03T02:10:18;101688.97;;;6.08;65.48
50364;BME280;36272;59.400;17.982;2023-05-03T02:15:19;101694.13;;;6.01;65.52
50364;BME280;36272;59.400;17.982;2023-05-03T02:20:21;101696.91;;;6.00;65.70
50364;BME280;36272;59.400;17.982;2023-05-03T02:25:23;101696.44;;;5.96;66.04
50364;BME280;36272;59.400;17.982;2023-05-03T02:30:24;101688.31;;;5.89;65.96
50364;BME280;36272;59.400;17.982;2023-05-03T02:35:26;101697.94;;;5.82;66.48
50364;BME280;36272;59.400;17.982;2023-05-03T02:40:28;101696.28;;;5.73;66.36
50364;BME280;36272;59.400;17.982;2023-05-03T02:45:30;101699.75;;;5.65;66.73
50364;BME280;36272;59.400;17.982;2023-05-03T02:50:31;101712.84;;;5.58;66.77
50364;BME280;36272;59.400;17.982;2023-05-03T02:55:33;101700.06;;;5.54;67.08
50364;BME280;36272;59.400;17.982;2023-05-03T03:00:35;101709.22;;;5.51;67.26
50364;BME280;36272;59.400;17.982;2023-05-03T03:05:36;101712.84;;;5.50;67.44
50364;BME280;36272;59.400;17.982;2023-05-03T03:10:38;101713.69;;;5.50;67.50
50364;BME280;36272;59.400;17.982;2023-05-03T03:15:40;101722.13;;;5.54;67.59
50364;BME280;36272;59.400;17.982;2023-05-03T03:20:42;101711.19;;;5.57;67.50
50364;BME280;36272;59.400;17.982;2023-05-03T03:25:44;101728.78;;;5.66;67.38
50364;BME280;36272;59.400;17.982;2023-05-03T03:30:45;101731.13;;;5.70;67.37
50364;BME280;36272;59.400;17.982;2023-05-03T03:35:47;101742.56;;;5.70;67.36
50364;BME280;36272;59.400;17.982;2023-05-03T03:40:49;101737.75;;;5.74;67.34
50364;BME280;36272;59.400;17.982;2023-05-03T03:45:50;101743.41;;;5.79;67.22
50364;BME280;36272;59.400;17.982;2023-05-03T03:50:52;101731.13;;;5.86;66.92
50364;BME280;36272;59.400;17.982;2023-05-03T03:55:54;101749.38;;;5.89;66.81
50364;BME280;36272;59.400;17.982;2023-05-03T04:00:56;101754.19;;;5.94;66.58
50364;BME280;36272;59.400;17.982;2023-05-03T04:05:58;101758.31;;;5.96;66.22
50364;BME280;36272;59.400;17.982;2023-05-03T04:11:01;101742.25;;;5.98;65.88
50364;BME280;36272;59.400;17.982;2023-05-03T04:16:04;101750.56;;;6.03;65.79
50364;BME280;36272;59.400;17.982;2023-05-03T04:21:05;101762.69;;;6.06;65.50
50364;BME280;36272;59.400;17.982;2023-05-03T04:26:08;101774.97;;;6.07;65.20
50364;BME280;36272;59.400;17.982;2023-05-03T04:31:10;101792.22;;;6.11;64.81
50364;BME280;36272;59.400;17.982;2023-05-03T04:36:12;101790.09;;;6.15;64.45
50364;BME280;36272;59.400;17.982;2023-05-03T04:41:17;101794.22;;;6.17;64.41
50364;BME280;36272;59.400;17.982;2023-05-03T04:46:18;101797.22;;;6.22;64.22
50364;BME280;36272;59.400;17.982;2023-05-03T04:51:20;101802.22;;;6.25;63.83
50364;BME280;36272;59.400;17.982;2023-05-03T04:56:22;101803.53;;;6.30;63.68
50364;BME280;36272;59.400;17.982;2023-05-03T05:01:26;101815.50;;;6.34;63.43
50364;BME280;36272;59.400;17.982;2023-05-03T05:06:28;101814.16;;;6.38;63.14
50364;BME280;36272;59.400;17.982;2023-05-03T05:11:30;101822.44;;;6.43;63.01
50364;BME280;36272;59.400;17.982;2023-05-03T05:16:32;101831.41;;;6.50;62.68
50364;BME280;36272;59.400;17.982;2023-05-03T05:21:34;101840.22;;;6.59;62.61
50364;BME280;36272;59.400;17.982;2023-05-03T05:26:35;101841.19;;;6.66;62.27
50364;BME280;36272;59.400;17.982;2023-05-03T05:31:37;101840.03;;;6.69;62.10
50364;BME280;36272;59.400;17.982;2023-05-03T05:36:38;101836.72;;;6.75;62.23
50364;BME280;36272;59.400;17.982;2023-05-03T05:41:40;101840.34;;;6.82;61.93
50364;BME280;36272;59.400;17.982;2023-05-03T05:46:42;101849.28;;;6.90;61.81
50364;BME280;36272;59.400;17.982;2023-05-03T05:51:43;101854.13;;;6.94;61.50
50364;BME280;36272;59.400;17.982;2023-05-03T05:56:45;101860.25;;;7.03;61.48
50364;BME280;36272;59.400;17.982;2023-05-03T06:01:47;101855.91;;;7.10;61.11
50364;BME280;36272;59.400;17.982;2023-05-03T06:06:48;101862.03;;;7.19;61.30
50364;BME280;36272;59.400;17.982;2023-05-03T06:11:50;101852.81;;;7.30;60.93
50364;BME280;36272;59.400;17.982;2023-05-03T06:16:52;101870.28;;;7.41;60.58
50364;BME280;36272;59.400;17.982;2023-05-03T06:21:54;101874.91;;;7.47;60.29
50364;BME280;36272;59.400;17.982;2023-05-03T06:26:56;101875.69;;;7.56;60.00
50364;BME280;36272;59.400;17.982;2023-05-03T06:31:58;101873.16;;;7.63;59.74
50364;BME280;36272;59.400;17.982;2023-05-03T06:37:00;101875.13;;;7.69;59.75
50364;BME280;36272;59.400;17.982;2023-05-03T06:42:02;101886.56;;;7.78;59.14
50364;BME280;36272;59.400;17.982;2023-05-03T06:47:04;101893.69;;;7.85;59.09
50364;BME280;36272;59.400;17.982;2023-05-03T06:52:05;101899.59;;;7.96;58.99
50364;BME280;36272;59.400;17.982;2023-05-03T06:57:07;101906.75;;;8.03;58.56
50364;BME280;36272;59.400;17.982;2023-05-03T07:02:10;101919.38;;;8.10;58.59
50364;BME280;36272;59.400;17.982;2023-05-03T07:07:12;101919.94;;;8.20;58.10
50364;BME280;36272;59.400;17.982;2023-05-03T07:12:14;101917.41;;;8.27;57.67
50364;BME280;36272;59.400;17.982;2023-05-03T07:17:16;101926.19;;;8.36;57.43
50364;BME280;36272;59.400;17.982;2023-05-03T07:22:18;101930.44;;;8.45;57.00
50364;BME280;36272;59.400;17.982;2023-05-03T07:27:25;101935.91;;;8.52;56.89
50364;BME280;36272;59.400;17.982;2023-05-03T07:32:27;101932.38;;;8.59;56.44
50364;BME280;36272;59.400;17.982;2023-05-03T07:37:28;101936.81;;;8.67;56.54
50364;BME280;36272;59.400;17.982;2023-05-03T07:42:30;101935.91;;;8.75;56.09
50364;BME280;36272;59.400;17.982;2023-05-03T07:47:32;101947.97;;;8.86;55.68
50364;BME280;36272;59.400;17.982;2023-05-03T07:52:38;101940.75;;;8.95;55.29
50364;BME280;36272;59.400;17.982;2023-05-03T07:57:40;101949.69;;;9.02;55.05
50364;BME280;36272;59.400;17.982;2023-05-03T08:02:42;101965.59;;;9.10;54.81
50364;BME280;36272;59.400;17.982;2023-05-03T08:07:44;101967.66;;;9.23;54.87
50364;BME280;36272;59.400;17.982;2023-05-03T08:12:46;101971.72;;;9.34;54.29
50364;BME280;36272;59.400;17.982;2023-05-03T08:17:48;101975.13;;;9.43;54.41
50364;BME280;36272;59.400;17.982;2023-05-03T08:22:50;101970.34;;;9.53;54.18
50364;BME280;36272;59.400;17.982;2023-05-03T08:27:51;101973.72;;;9.62;53.67
50364;BME280;36272;59.400;17.982;2023-05-03T08:32:53;101978.63;;;9.73;53.83
50364;BME280;36272;59.400;17.982;2023-05-03T08:37:55;101979.34;;;9.82;53.83
50364;BME280;36272;59.400;17.982;2023-05-03T08:42:58;101973.97;;;9.97;53.67
50364;BME280;36272;59.400;17.982;2023-05-03T08:48:07;101987.69;;;10.09;53.38
50364;BME280;36272;59.400;17.982;2023-05-03T08:53:09;101986.16;;;10.21;53.03
50364;BME280;36272;59.400;17.982;2023-05-03T08:58:11;102004.22;;;10.34;52.76
50364;BME280;36272;59.400;17.982;2023-05-03T09:03:13;101991.84;;;10.48;52.69
50364;BME280;36272;59.400;17.982;2023-05-03T09:08:15;101999.16;;;10.61;52.34
50364;BME280;36272;59.400;17.982;2023-05-03T09:13:17;102007.88;;;10.70;51.77
50364;BME280;36272;59.400;17.982;2023-05-03T09:18:20;101996.88;;;10.80;51.14
50364;BME280;36272;59.400;17.982;2023-05-03T09:28:26;102011.38;;;10.92;50.93
50364;BME280;36272;59.400;17.982;2023-05-03T09:33:28;102022.84;;;11.08;50.83
50364;BME280;36272;59.400;17.982;2023-05-03T09:38:34;102006.25;;;11.19;50.01
50364;BME280;36272;59.400;17.982;2023-05-03T09:43:50;102010.03;;;11.31;49.27
50364;BME280;36272;59.400;17.982;2023-05-03T09:48:53;102017.34;;;11.44;49.15
50364;BME280;36272;59.400;17.982;2023-05-03T09:53:58;102011.25;;;11.57;48.50
50364;BME280;36272;59.400;17.982;2023-05-03T09:58:59;102036.53;;;11.83;47.71
50364;BME280;36272;59.400;17.982;2023-05-03T10:04:02;102020.31;;;11.98;46.82
50364;BME280;36272;59.400;17.982;2023-05-03T10:09:11;102034.41;;;12.07;46.23
50364;BME280;36272;59.400;17.982;2023-05-03T10:14:15;102028.50;;;12.32;46.18
50364;BME280;36272;59.400;17.982;2023-05-03T10:19:21;102031.25;;;12.59;45.19
50364;BME280;36272;59.400;17.982;2023-05-03T10:24:24;102039.56;;;12.91;44.99
50364;BME280;36272;59.400;17.982;2023-05-03T10:34:37;102044.97;;;13.45;44.83
50364;BME280;36272;59.400;17.982;2023-05-03T10:39:43;102041.66;;;13.43;44.88
50364;BME280;36272;59.400;17.982;2023-05-03T10:44:51;102035.03;;;13.45;45.02
50364;BME280;36272;59.400;17.982;2023-05-03T10:55:19;102030.75;;;13.96;44.80
50364;BME280;36272;59.400;17.982;2023-05-03T11:00:36;102042.91;;;14.51;43.56
50364;BME280;36272;59.400;17.982;2023-05-03T11:05:38;102056.91;;;14.67;43.68
50364;BME280;36272;59.400;17.982;2023-05-03T11:10:40;102056.50;;;14.70;43.03
50364;BME280;36272;59.400;17.982;2023-05-03T11:15:42;102053.22;;;16.18;41.74
50364;BME280;36272;59.400;17.982;2023-05-03T11:20:44;102068.44;;;16.13;41.36
50364;BME280;36272;59.400;17.982;2023-05-03T11:25:45;102058.28;;;15.96;41.61
50364;BME280;36272;59.400;17.982;2023-05-03T11:30:47;102055.16;;;15.55;41.30
50364;BME280;36272;59.400;17.982;2023-05-03T11:35:49;102064.31;;;15.29;42.13
50364;BME280;36272;59.400;17.982;2023-05-03T11:40:55;102056.84;;;15.31;43.17
50364;BME280;36272;59.400;17.982;2023-05-03T11:45:57;102062.53;;;14.97;42.42
50364;BME280;36272;59.400;17.982;2023-05-03T11:51:06;102061.31;;;14.93;42.41
50364;BME280;36272;59.400;17.982;2023-05-03T11:56:11;102058.88;;;15.98;41.44
50364;BME280;36272;59.400;17.982;2023-05-03T12:01:19;102055.34;;;17.73;38.97
50364;BME280;36272;59.400;17.982;2023-05-03T12:06:25;102043.63;;;18.66;38.33
50364;BME280;36272;59.400;17.982;2023-05-03T12:11:28;102069.34;;;21.73;35.12
50364;BME280;36272;59.400;17.982;2023-05-03T12:16:46;102056.41;;;23.61;33.46
50364;BME280;36272;59.400;17.982;2023-05-03T12:21:48;102065.81;;;25.44;31.60
50364;BME280;36272;59.400;17.982;2023-05-03T12:26:49;102072.88;;;25.94;31.27
50364;BME280;36272;59.400;17.982;2023-05-03T12:31:51;102084.31;;;27.25;30.45
50364;BME280;36272;59.400;17.982;2023-05-03T12:36:52;102083.50;;;26.58;31.04
50364;BME280;36272;59.400;17.982;2023-05-03T12:41:55;102105.81;;;24.36;32.51
50364;BME280;36272;59.400;17.982;2023-05-03T12:46:57;102118.22;;;22.06;37.58
50364;BME280;36272;59.400;17.982;2023-05-03T12:51:59;102099.44;;;21.56;37.79
50364;BME280;36272;59.400;17.982;2023-05-03T12:57:01;102089.78;;;20.95;37.88
50364;BME280;36272;59.400;17.982;2023-05-03T13:02:04;102115.97;;;20.24;38.28
50364;BME280;36272;59.400;17.982;2023-05-03T13:07:06;102099.31;;;19.20;41.62
50364;BME280;36272;59.400;17.982;2023-05-03T13:12:07;102084.47;;;20.01;39.85
50364;BME280;36272;59.400;17.982;2023-05-03T13:17:10;102086.81;;;20.19;37.86
50364;BME280;36272;59.400;17.982;2023-05-03T13:22:13;102078.28;;;19.66;37.99
50364;BME280;36272;59.400;17.982;2023-05-03T13:27:15;102078.81;;;19.46;40.22
50364;BME280;36272;59.400;17.982;2023-05-03T13:32:18;102081.28;;;21.24;40.32
50364;BME280;36272;59.400;17.982;2023-05-03T13:37:19;102065.50;;;23.36;38.62
50364;BME280;36272;59.400;17.982;2023-05-03T13:42:21;102070.16;;;23.15;37.93
50364;BME280;36272;59.400;17.982;2023-05-03T13:47:23;102099.41;;;21.94;37.81
50364;BME280;36272;59.400;17.982;2023-05-03T13:52:25;102108.88;;;20.73;37.94
50364;BME280;36272;59.400;17.982;2023-05-03T13:57:27;102146.88;;;19.44;38.80
50364;BME280;36272;59.400;17.982;2023-05-03T14:02:28;102171.00;;;18.13;40.81
50364;BME280;36272;59.400;17.982;2023-05-03T14:07:30;102176.88;;;17.08;43.65
50364;BME280;36272;59.400;17.982;2023-05-03T14:12:33;102171.09;;;16.74;44.36
50364;BME280;36272;59.400;17.982;2023-05-03T14:17:36;102171.94;;;17.59;44.30
50364;BME280;36272;59.400;17.982;2023-05-03T14:22:38;102171.34;;;17.69;42.63
50364;BME280;36272;59.400;17.982;2023-05-03T14:27:40;102174.16;;;17.50;43.39
50364;BME280;36272;59.400;17.982;2023-05-03T14:32:43;102168.91;;;17.13;42.36
50364;BME280;36272;59.400;17.982;2023-05-03T14:37:45;102166.91;;;16.59;42.72
50364;BME280;36272;59.400;17.982;2023-05-03T14:42:47;102160.59;;;16.84;42.15
50364;BME280;36272;59.400;17.982;2023-05-03T14:47:49;102162.31;;;18.81;40.22
50364;BME280;36272;59.400;17.982;2023-05-03T14:52:51;102163.22;;;20.23;38.51
50364;BME280;36272;59.400;17.982;2023-05-03T14:57:53;102160.50;;;21.00;37.58
50364;BME280;36272;59.400;17.982;2023-05-03T15:02:55;102173.84;;;21.02;37.29
50364;BME280;36272;59.400;17.982;2023-05-03T15:07:56;102188.84;;;20.32;38.26
50364;BME280;36272;59.400;17.982;2023-05-03T15:13:00;102193.91;;;19.33;40.16
50364;BME280;36272;59.400;17.982;2023-05-03T15:18:02;102188.84;;;18.38;42.55
50364;BME280;36272;59.400;17.982;2023-05-03T15:23:03;102203.00;;;17.92;44.59
50364;BME280;36272;59.400;17.982;2023-05-03T15:28:05;102216.81;;;18.55;44.25
50364;BME280;36272;59.400;17.982;2023-05-03T15:33:07;102226.75;;;18.50;44.31
50364;BME280;36272;59.400;17.982;2023-05-03T15:38:11;102233.00;;;17.91;45.06
50364;BME280;36272;59.400;17.982;2023-05-03T15:43:12;102240.81;;;17.33;45.57
50364;BME280;36272;59.400;17.982;2023-05-03T15:48:15;102238.34;;;16.63;46.43
50364;BME280;36272;59.400;17.982;2023-05-03T15:53:17;102260.91;;;15.88;47.41
50364;BME280;36272;59.400;17.982;2023-05-03T15:58:19;102270.00;;;15.29;48.30
50364;BME280;36272;59.400;17.982;2023-05-03T16:03:20;102282.63;;;14.90;49.51
50364;BME280;36272;59.400;17.982;2023-05-03T16:08:22;102288.28;;;14.62;50.80
50364;BME280;36272;59.400;17.982;2023-05-03T16:13:24;102304.06;;;14.24;51.88
50364;BME280;36272;59.400;17.982;2023-05-03T16:18:26;102312.94;;;13.85;52.83
50364;BME280;36272;59.400;17.982;2023-05-03T16:23:28;102303.50;;;13.33;53.70
50364;BME280;36272;59.400;17.982;2023-05-03T16:28:29;102291.00;;;13.05;54.72
50364;BME280;36272;59.400;17.982;2023-05-03T16:33:31;102299.09;;;13.12;55.98
50364;BME280;36272;59.400;17.982;2023-05-03T16:38:45;102264.72;;;12.94;56.20
50364;BME280;36272;59.400;17.982;2023-05-03T16:43:50;102285.38;;;12.52;56.48
50364;BME280;36272;59.400;17.982;2023-05-03T16:48:52;102285.41;;;12.30;57.63
50364;BME280;36272;59.400;17.982;2023-05-03T16:53:54;102296.03;;;12.16;57.85
50364;BME280;36272;59.400;17.982;2023-05-03T16:59:24;102279.41;;;11.99;58.91
50364;BME280;36272;59.400;17.982;2023-05-03T17:04:28;102296.38;;;11.63;59.30
50364;BME280;36272;59.400;17.982;2023-05-03T17:09:30;102303.94;;;11.38;60.03
50364;BME280;36272;59.400;17.982;2023-05-03T17:14:32;102309.91;;;11.18;60.51
50364;BME280;36272;59.400;17.982;2023-05-03T17:19:33;102329.56;;;11.10;60.72
50364;BME280;36272;59.400;17.982;2023-05-03T17:24:35;102313.13;;;11.13;61.30
50364;BME280;36272;59.400;17.982;2023-05-03T17:29:37;102323.56;;;11.23;60.66
50364;BME280;36272;59.400;17.982;2023-05-03T17:34:38;102325.84;;;11.26;60.63
50364;BME280;36272;59.400;17.982;2023-05-03T17:39:40;102330.41;;;11.11;60.80
50364;BME280;36272;59.400;17.982;2023-05-03T17:44:42;102333.63;;;10.91;61.49
50364;BME280;36272;59.400;17.982;2023-05-03T17:49:43;102344.31;;;10.61;61.87
50364;BME280;36272;59.400;17.982;2023-05-03T17:54:45;102346.56;;;10.34;62.35
50364;BME280;36272;59.400;17.982;2023-05-03T17:59:47;102347.41;;;10.11;63.00
50364;BME280;36272;59.400;17.982;2023-05-03T18:04:49;102342.16;;;9.95;63.24
50364;BME280;36272;59.400;17.982;2023-05-03T18:09:50;102358.69;;;9.75;63.38
50364;BME280;36272;59.400;17.982;2023-05-03T18:14:52;102364.00;;;9.52;63.44
50364;BME280;36272;59.400;17.982;2023-05-03T18:20:00;102366.06;;;9.33;63.87
50364;BME280;36272;59.400;17.982;2023-05-03T18:25:04;102371.84;;;9.14;63.94
50364;BME280;36272;59.400;17.982;2023-05-03T18:30:07;102371.06;;;8.97;64.08
50364;BME280;36272;59.400;17.982;2023-05-03T18:35:10;102392.75;;;8.77;64.41
50364;BME280;36272;59.400;17.982;2023-05-03T18:40:11;102399.44;;;8.65;64.74
50364;BME280;36272;59.400;17.982;2023-05-03T18:45:13;102403.09;;;8.47;65.16
50364;BME280;36272;59.400;17.982;2023-05-03T18:50:15;102409.41;;;8.29;65.29
50364;BME280;36272;59.400;17.982;2023-05-03T18:55:17;102411.75;;;8.16;65.27
50364;BME280;36272;59.400;17.982;2023-05-03T19:00:18;102417.38;;;7.96;65.19
50364;BME280;36272;59.400;17.982;2023-05-03T19:05:20;102425.16;;;7.81;65.39
50364;BME280;36272;59.400;17.982;2023-05-03T19:10:23;102428.97;;;7.70;65.81
50364;BME280;36272;59.400;17.982;2023-05-03T19:15:24;102446.22;;;7.58;65.63
50364;BME280;36272;59.400;17.982;2023-05-03T19:20:27;102451.00;;;7.46;65.72
50364;BME280;36272;59.400;17.982;2023-05-03T19:25:29;102452.38;;;7.32;65.91
50364;BME280;36272;59.400;17.982;2023-05-03T19:30:31;102454.34;;;7.22;65.99
50364;BME280;36272;59.400;17.982;2023-05-03T19:35:39;102439.78;;;7.08;66.82
50364;BME280;36272;59.400;17.982;2023-05-03T19:40:56;102439.06;;;6.97;67.19
50364;BME280;36272;59.400;17.982;2023-05-03T19:45:58;102460.41;;;6.88;66.45
50364;BME280;36272;59.400;17.982;2023-05-03T19:51:00;102458.03;;;6.76;66.46
50364;BME280;36272;59.400;17.982;2023-05-03T19:56:08;102446.63;;;6.66;66.64
50364;BME280;36272;59.400;17.982;2023-05-03T20:01:12;102474.13;;;6.57;66.73
50364;BME280;36272;59.400;17.982;2023-05-03T20:06:14;102467.22;;;6.46;66.81
50364;BME280;36272;59.400;17.982;2023-05-03T20:11:17;102458.66;;;6.34;67.07
50364;BME280;36272;59.400;17.982;2023-05-03T20:16:19;102479.66;;;6.27;66.94
50364;BME280;36272;59.400;17.982;2023-05-03T20:21:23;102469.09;;;6.17;67.22
50364;BME280;36272;59.400;17.982;2023-05-03T20:26:25;102489.56;;;6.07;67.07
50364;BME280;36272;59.400;17.982;2023-05-03T20:31:27;102483.78;;;5.93;67.69
50364;BME280;36272;59.400;17.982;2023-05-03T20:36:30;102489.28;;;5.82;68.08
50364;BME280;36272;59.400;17.982;2023-05-03T20:41:32;102489.97;;;5.84;68.14
50364;BME280;36272;59.400;17.982;2023-05-03T20:46:34;102483.66;;;5.85;68.22
50364;BME280;36272;59.400;17.982;2023-05-03T20:51:37;102487.84;;;5.88;67.77
50364;BME280;36272;59.400;17.982;2023-05-03T20:56:39;102489.66;;;5.87;67.80
50364;BME280;36272;59.400;17.982;2023-05-03T21:01:40;102487.31;;;5.84;67.57
50364;BME280;36272;59.400;17.982;2023-05-03T21:06:42;102491.94;;;5.82;67.59
50364;BME280;36272;59.400;17.982;2023-05-03T21:11:44;102493.03;;;5.79;67.88
50364;BME280;36272;59.400;17.982;2023-05-03T21:16:45;102490.84;;;5.75;67.81
50364;BME280;36272;59.400;17.982;2023-05-03T21:21:47;102494.06;;;5.69;68.10
50364;BME280;36272;59.400;17.982;2023-05-03T21:26:49;102487.53;;;5.63;68.65
50364;BME280;36272;59.400;17.982;2023-05-03T21:31:50;102491.47;;;5.59;68.80
50364;BME280;36272;59.400;17.982;2023-05-03T21:36:52;102491.19;;;5.52;68.76
50364;BME280;36272;59.400;17.982;2023-05-03T21:41:54;102487.59;;;5.43;68.73
50364;BME280;36272;59.400;17.982;2023-05-03T21:46:55;102474.91;;;5.37;68.74
50364;BME280;36272;59.400;17.982;2023-05-03T21:51:57;102487.91;;;5.30;68.81
50364;BME280;36272;59.400;17.982;2023-05-03T21:56:59;102494.78;;;5.23;68.87
50364;BME280;36272;59.400;17.982;2023-05-03T22:02:00;102489.34;;;5.15;69.02
50364;BME280;36272;59.400;17.982;2023-05-03T22:07:05;102503.47;;;5.05;69.58
50364;BME280;36272;59.400;17.982;2023-05-03T22:12:06;102492.72;;;4.97;69.39
50364;BME280;36272;59.400;17.982;2023-05-03T22:17:08;102504.88;;;4.90;69.42
50364;BME280;36272;59.400;17.982;2023-05-03T22:22:10;102507.38;;;4.82;69.48
50364;BME280;36272;59.400;17.982;2023-05-03T22:27:11;102512.53;;;4.73;69.48
50364;BME280;36272;59.400;17.982;2023-05-03T22:32:13;102516.03;;;4.64;69.75
50364;BME280;36272;59.400;17.982;2023-05-03T22:37:15;102520.22;;;4.57;69.92
50364;BME280;36272;59.400;17.982;2023-05-03T22:42:17;102508.34;;;4.51;70.09
50364;BME280;36272;59.400;17.982;2023-05-03T22:47:20;102502.63;;;4.46;69.88
50364;BME280;36272;59.400;17.982;2023-05-03T22:52:21;102511.41;;;4.37;70.15
50364;BME280;36272;59.400;17.982;2023-05-03T22:57:23;102512.34;;;4.26;70.53
50364;BME280;36272;59.400;17.982;2023-05-03T23:02:25;102510.38;;;4.18;70.29
50364;BME280;36272;59.400;17.982;2023-05-03T23:07:29;102504.09;;;4.09;70.65
50364;BME280;36272;59.400;17.982;2023-05-03T23:12:31;102515.22;;;4.03;70.74
50364;BME280;36272;59.400;17.982;2023-05-03T23:17:33;102510.63;;;3.95;70.75
50364;BME280;36272;59.400;17.982;2023-05-03T23:22:34;102523.69;;;3.87;71.13
50364;BME280;36272;59.400;17.982;2023-05-03T23:27:36;102533.13;;;3.80;71.57
50364;BME280;36272;59.400;17.982;2023-05-03T23:32:38;102524.59;;;3.76;71.72
50364;BME280;36272;59.400;17.982;2023-05-03T23:37:40;102527.91;;;3.68;71.62
50364;BME280;36272;59.400;17.982;2023-05-03T23:42:41;102526.38;;;3.66;71.80
50364;BME280;36272;59.400;17.982;2023-05-03T23:47:43;102535.41;;;3.63;71.53
50364;BME280;36272;59.400;17.982;2023-05-03T23:52:45;102545.16;;;3.63;71.43
50364;BME280;36272;59.400;17.982;2023-05-03T23:57:47;102548.78;;;3.62;71.48
